Time;durP1;ratioP1;P1;durP2;ratioP2;P2;SDS_P1;SDS_P2;PMS_P1;PMS_P2;Temp;Humidity;BMP_temperature;BMP_pressure;BME280_temperature;BME280_humidity;BME280_pressure;Samples;Min_cycle;Max_cycle;Signal;HPM_P1;HPM_P2
2023/10/15 05:26:16;;;;;;;;;;;;;;;16.26;52.78;97189.94;4230069;27;10255;-65
2023/10/15 05:28:19;;;;;;;;;;;;;;;16.55;52.30;97191.09;4221433;28;6577;-66
2023/10/15 05:30:22;;;;;;;;;;;;;;;16.77;51.89;97197.69;4222898;28;5780;-65
2023/10/15 05:32:24;;;;;;;;;;;;;;;16.96;51.40;97192.31;4222091;28;5785;-66
2023/10/15 05:34:27;;;;;;;;;;;;;;;17.10;51.16;97191.94;4216540;28;6155;-65
2023/10/15 05:36:29;;;;;;;;;;;;;;;17.25;50.95;97198.75;4218829;28;5783;-66
2023/10/15 05:38:32;;;;;;;;;;;;;;;17.33;50.58;97195.78;4230049;28;5680;-66
2023/10/15 05:40:34;;;;;;;;;;;;;;;17.41;50.33;97200.78;4220195;28;5823;-70
2023/10/15 05:42:38;;;;;;;;;;;;;;;17.48;50.01;97192.69;4224962;28;5687;-66
2023/10/15 05:44:41;;;;;;;;;;;;;;;17.55;49.82;97188.84;4230617;28;5755;-67
2023/10/15 05:46:46;;;;;;;;;;;;;;;17.60;49.61;97185.53;4231579;28;5780;-66
2023/10/15 05:48:49;;;;;;;;;;;;;;;17.64;49.39;97190.16;4231866;28;5673;-66
2023/10/15 05:50:51;;;;;;;;;;;;;;;17.68;49.27;97188.69;4231796;28;5758;-67
2023/10/15 05:52:54;;;;;;;;;;;;;;;17.71;49.01;97190.94;4225855;28;5698;-69
2023/10/15 05:54:57;;;;;;;;;;;;;;;17.75;48.92;97201.97;4229012;28;5657;-67
2023/10/15 05:57:02;;;;;;;;;;;;;;;17.77;48.65;97199.06;4225088;28;5773;-67
2023/10/15 05:59:07;;;;;;;;;;;;;;;17.79;48.37;97197.81;4222718;28;5717;-65
2023/10/15 06:01:12;;;;;;;;;;;;;;;17.83;48.33;97204.31;4214357;28;5690;-72
2023/10/15 06:03:15;;;;;;;;;;;;;;;17.85;48.21;97207.59;4215142;27;5765;-66
2023/10/15 06:05:18;;;;;;;;;;;;;;;17.86;48.08;97209.22;4230589;28;5676;-68
2023/10/15 06:07:21;;;;;;;;;;;;;;;17.87;48.02;97205.50;4223277;28;5728;-70
2023/10/15 06:09:23;;;;;;;;;;;;;;;17.89;47.81;97203.41;4230437;28;5691;-71
2023/10/15 06:11:25;;;;;;;;;;;;;;;17.90;47.71;97202.38;4222496;28;5683;-74
2023/10/15 06:13:28;;;;;;;;;;;;;;;17.94;47.52;97205.41;4227574;28;5668;-69
2023/10/15 06:15:33;;;;;;;;;;;;;;;17.95;47.40;97201.69;4218889;28;5697;-66
2023/10/15 06:17:37;;;;;;;;;;;;;;;17.95;47.32;97212.38;4223713;28;5698;-65
2023/10/15 06:19:40;;;;;;;;;;;;;;;17.93;47.17;97203.78;4226029;28;5806;-68
2023/10/15 06:21:42;;;;;;;;;;;;;;;17.93;47.17;97209.94;4230591;28;5738;-65
2023/10/15 06:23:45;;;;;;;;;;;;;;;17.95;47.19;97213.19;4229242;28;5672;-67
2023/10/15 06:25:47;;;;;;;;;;;;;;;17.95;46.81;97204.34;4224343;28;5759;-67
2023/10/15 06:27:51;;;;;;;;;;;;;;;17.95;46.79;97215.88;4217351;28;5728;-66
2023/10/15 06:29:54;;;;;;;;;;;;;;;17.94;46.52;97208.88;4219733;28;5770;-66
2023/10/15 06:31:59;;;;;;;;;;;;;;;17.94;46.55;97218.78;4207254;28;5979;-67
2023/10/15 06:34:02;;;;;;;;;;;;;;;17.91;46.31;97217.38;4202917;28;5836;-67
2023/10/15 06:36:06;;;;;;;;;;;;;;;17.91;46.41;97217.38;4202831;28;5780;-67
2023/10/15 06:38:08;;;;;;;;;;;;;;;17.91;46.19;97220.06;4209808;28;5887;-66
2023/10/15 06:40:13;;;;;;;;;;;;;;;17.92;46.17;97223.53;4217836;28;5752;-67
2023/10/15 06:42:25;;;;;;;;;;;;;;;17.93;46.25;97226.00;4207022;28;5706;-68
2023/10/15 06:44:27;;;;;;;;;;;;;;;17.97;46.00;97227.16;4215193;28;5771;-67
2023/10/15 06:46:31;;;;;;;;;;;;;;;17.97;46.08;97232.50;4210811;28;5807;-67
2023/10/15 06:48:37;;;;;;;;;;;;;;;17.96;45.91;97232.72;4218689;28;5727;-74
2023/10/15 06:50:41;;;;;;;;;;;;;;;17.93;45.93;97235.88;4214359;28;5680;-74
2023/10/15 06:52:43;;;;;;;;;;;;;;;17.88;45.86;97239.22;4209590;28;6392;-74
2023/10/15 06:54:46;;;;;;;;;;;;;;;17.83;45.73;97239.09;4202188;28;5734;-72
2023/10/15 15:35:34;;;;;;;;;;;;;;;16.17;41.95;97212.59;4239012;27;10380;-68
2023/10/15 15:37:37;;;;;;;;;;;;;;;16.35;41.37;97199.31;4227485;28;5671;-68
2023/10/15 15:39:40;;;;;;;;;;;;;;;16.52;40.80;97199.53;4223494;28;5677;-67
2023/10/15 15:41:43;;;;;;;;;;;;;;;16.62;40.00;97207.03;4227574;28;5734;-68
2023/10/15 15:43:45;;;;;;;;;;;;;;;16.69;39.68;97197.16;4224343;28;5896;-67
2023/10/15 15:45:48;;;;;;;;;;;;;;;16.73;38.97;97188.47;4231139;28;5655;-70
2023/10/15 15:47:52;;;;;;;;;;;;;;;16.78;39.32;97196.63;4227870;28;5802;-66
2023/10/15 15:49:55;;;;;;;;;;;;;;;16.88;39.35;97190.78;4229439;27;5822;-68
2023/10/15 15:51:59;;;;;;;;;;;;;;;16.96;39.31;97193.13;4231007;28;5626;-67
2023/10/15 15:54:02;;;;;;;;;;;;;;;17.00;38.86;97193.53;4224174;27;7899;-66
2023/10/15 15:56:08;;;;;;;;;;;;;;;17.04;39.23;97194.69;4227662;28;5656;-68
2023/10/15 15:58:11;;;;;;;;;;;;;;;17.11;39.44;97193.56;4228764;28;6348;-66
2023/10/15 16:00:16;;;;;;;;;;;;;;;17.18;39.31;97191.63;4225655;28;5942;-67
2023/10/15 16:02:19;;;;;;;;;;;;;;;17.23;39.54;97190.97;4230843;28;5787;-73
2023/10/15 16:04:23;;;;;;;;;;;;;;;17.29;39.21;97191.91;4227217;28;5694;-71
2023/10/15 16:06:27;;;;;;;;;;;;;;;17.23;39.33;97177.59;4230741;28;5837;-72
2023/10/15 16:08:33;;;;;;;;;;;;;;;17.23;39.08;97188.28;4228046;28;5686;-72
2023/10/15 16:10:35;;;;;;;;;;;;;;;17.23;39.19;97185.63;4227955;28;5668;-72
2023/10/15 16:12:38;;;;;;;;;;;;;;;17.22;39.15;97181.31;4230191;28;5745;-72
2023/10/15 16:14:41;;;;;;;;;;;;;;;17.22;38.99;97186.66;4227628;28;5691;-73
2023/10/15 16:16:45;;;;;;;;;;;;;;;17.25;39.10;97188.88;4220021;28;5845;-70
2023/10/15 16:18:47;;;;;;;;;;;;;;;17.22;39.00;97181.31;4229812;28;5651;-68
2023/10/15 16:20:51;;;;;;;;;;;;;;;17.15;38.76;97183.25;4227836;28;5730;-66
2023/10/15 16:22:55;;;;;;;;;;;;;;;17.11;39.00;97184.75;4226311;28;6746;-69
2023/10/15 16:24:59;;;;;;;;;;;;;;;17.05;39.02;97188.31;4223651;28;5924;-69
2023/10/15 16:27:09;;;;;;;;;;;;;;;17.00;39.10;97178.31;4224465;28;6377;-70
2023/10/15 16:29:12;;;;;;;;;;;;;;;16.94;39.08;97184.53;4225910;28;5751;-68
2023/10/15 16:31:16;;;;;;;;;;;;;;;16.94;39.37;97179.19;4226386;27;5844;-74
2023/10/15 16:33:17;;;;;;;;;;;;;;;16.98;39.21;97184.88;4224593;27;5697;-71
2023/10/15 16:35:21;;;;;;;;;;;;;;;17.00;39.22;97177.50;4218114;28;5734;-67
2023/10/15 16:37:23;;;;;;;;;;;;;;;16.99;39.15;97179.34;4212533;28;7002;-66
2023/10/15 16:39:27;;;;;;;;;;;;;;;16.97;38.97;97181.41;4215879;28;5743;-70
2023/10/15 16:41:32;;;;;;;;;;;;;;;16.95;39.18;97178.16;4216239;28;5735;-68
2023/10/15 16:43:35;;;;;;;;;;;;;;;16.94;38.96;97173.84;4214616;28;5692;-68
2023/10/15 16:45:38;;;;;;;;;;;;;;;16.95;38.86;97177.34;4217243;28;5676;-67
2023/10/15 16:47:42;;;;;;;;;;;;;;;16.93;38.98;97171.41;4213604;28;5773;-69
2023/10/15 16:49:45;;;;;;;;;;;;;;;16.94;39.18;97181.03;4209743;28;5930;-68
2023/10/15 16:51:48;;;;;;;;;;;;;;;16.97;38.98;97184.06;4211969;28;5691;-66
2023/10/15 16:53:51;;;;;;;;;;;;;;;16.99;38.99;97186.50;4216737;28;5739;-66
2023/10/15 16:55:54;;;;;;;;;;;;;;;16.95;38.64;97180.00;4214966;28;5877;-65
2023/10/15 16:57:58;;;;;;;;;;;;;;;16.93;38.61;97182.91;4215026;28;5762;-65
2023/10/15 17:00:01;;;;;;;;;;;;;;;16.92;38.62;97180.47;4219176;28;6372;-65
2023/10/15 17:02:05;;;;;;;;;;;;;;;16.88;38.54;97186.25;4210266;28;5770;-65
2023/10/15 17:04:07;;;;;;;;;;;;;;;16.82;38.29;97192.47;4214664;28;5740;-65
2023/10/15 17:06:10;;;;;;;;;;;;;;;16.77;38.14;97188.84;4217971;28;5768;-64
2023/10/15 17:08:13;;;;;;;;;;;;;;;16.70;38.19;97196.91;4210780;28;5834;-65
2023/10/15 17:10:16;;;;;;;;;;;;;;;16.66;38.21;97193.03;4217314;28;5783;-65
2023/10/15 17:12:18;;;;;;;;;;;;;;;16.62;38.11;97193.69;4217697;28;5746;-65
2023/10/15 17:14:23;;;;;;;;;;;;;;;16.53;38.40;97187.81;4217766;28;5703;-66
2023/10/15 17:16:26;;;;;;;;;;;;;;;16.45;38.07;97191.63;4216376;28;5656;-65
2023/10/15 17:18:30;;;;;;;;;;;;;;;16.41;38.40;97190.41;4217328;28;5684;-65
2023/10/15 17:20:34;;;;;;;;;;;;;;;16.43;38.26;97199.03;4217506;28;5762;-65
2023/10/15 17:22:37;;;;;;;;;;;;;;;16.38;38.59;97187.38;4209976;28;5697;-66
2023/10/15 17:24:40;;;;;;;;;;;;;;;16.39;38.51;97195.16;4212118;28;5095;-64
2023/10/15 17:26:43;;;;;;;;;;;;;;;16.41;38.49;97195.75;4211803;28;5758;-66
2023/10/15 17:28:45;;;;;;;;;;;;;;;16.41;38.55;97192.25;4213197;28;5738;-63
2023/10/15 17:30:50;;;;;;;;;;;;;;;16.40;38.70;97193.28;4216591;28;5744;-62
2023/10/15 17:32:54;;;;;;;;;;;;;;;16.37;38.59;97189.22;4215552;28;5633;-62
2023/10/15 17:34:58;;;;;;;;;;;;;;;16.27;38.76;97187.03;4216807;28;5088;-63
2023/10/15 17:37:01;;;;;;;;;;;;;;;16.26;38.76;97188.09;4211557;28;5726;-63
2023/10/15 17:39:21;;;;;;;;;;;;;;;16.22;38.86;97192.25;4209353;28;5823;-67
2023/10/15 17:41:25;;;;;;;;;;;;;;;16.19;39.08;97187.31;4210737;28;7747;-67
2023/10/15 17:43:28;;;;;;;;;;;;;;;16.21;39.21;97185.28;4213522;28;5124;-68
2023/10/15 17:45:31;;;;;;;;;;;;;;;16.21;39.21;97190.59;4210856;28;5742;-67
2023/10/15 17:47:35;;;;;;;;;;;;;;;16.20;39.20;97196.97;4211127;28;5783;-67
2023/10/15 17:49:38;;;;;;;;;;;;;;;16.24;39.38;97200.03;4214824;28;5746;-67
2023/10/15 17:51:41;;;;;;;;;;;;;;;16.23;39.38;97193.88;4216735;28;5701;-69
2023/10/15 17:53:45;;;;;;;;;;;;;;;16.17;39.54;97192.06;4212871;28;5704;-74
2023/10/15 17:55:48;;;;;;;;;;;;;;;16.20;39.82;97191.66;4216730;28;5862;-74
2023/10/15 17:57:52;;;;;;;;;;;;;;;16.21;39.71;97185.28;4222043;28;5713;-65
2023/10/15 17:59:55;;;;;;;;;;;;;;;16.17;40.12;97183.25;4211049;28;5696;-63
2023/10/15 18:01:58;;;;;;;;;;;;;;;16.09;40.37;97189.69;4211998;28;5645;-64
2023/10/15 18:04:03;;;;;;;;;;;;;;;16.05;40.40;97174.31;4209782;28;6294;-60
2023/10/15 18:06:08;;;;;;;;;;;;;;;16.04;40.56;97184.19;4215296;28;5667;-65
2023/10/15 18:08:11;;;;;;;;;;;;;;;16.06;40.50;97175.94;4221069;28;5633;-64
2023/10/15 18:10:13;;;;;;;;;;;;;;;16.08;40.71;97182.69;4215352;28;5672;-68
2023/10/15 18:12:16;;;;;;;;;;;;;;;16.07;40.57;97180.25;4216394;28;5698;-67
2023/10/15 18:14:20;;;;;;;;;;;;;;;16.07;40.57;97183.72;4215675;28;5759;-65
2023/10/15 18:16:23;;;;;;;;;;;;;;;16.04;40.84;97180.69;4214305;28;5821;-68
2023/10/15 18:18:26;;;;;;;;;;;;;;;15.97;40.84;97175.44;4215796;28;5654;-66
2023/10/15 18:20:30;;;;;;;;;;;;;;;15.94;40.87;97178.50;4214820;28;5833;-67
2023/10/15 18:22:33;;;;;;;;;;;;;;;15.94;40.97;97173.19;4214153;28;5744;-66
2023/10/15 18:24:36;;;;;;;;;;;;;;;15.94;41.05;97184.66;4207469;28;5772;-66
2023/10/15 18:26:39;;;;;;;;;;;;;;;15.92;40.95;97177.91;4215509;28;5630;-65
2023/10/15 18:28:42;;;;;;;;;;;;;;;15.93;41.16;97179.56;4216113;28;5838;-65
2023/10/15 18:30:45;;;;;;;;;;;;;;;15.87;41.26;97172.44;4215062;28;5634;-65
2023/10/15 18:32:49;;;;;;;;;;;;;;;15.90;41.24;97177.31;4209596;28;5671;-70
2023/10/15 18:34:52;;;;;;;;;;;;;;;15.93;41.37;97174.22;4215564;28;5642;-66
2023/10/15 18:36:57;;;;;;;;;;;;;;;15.92;41.48;97170.75;4215389;28;5668;-67
2023/10/15 18:39:00;;;;;;;;;;;;;;;15.85;41.77;97174.47;4215516;28;5634;-65
2023/10/15 18:41:03;;;;;;;;;;;;;;;15.86;41.80;97184.94;4215865;28;5826;-69
2023/10/15 18:43:07;;;;;;;;;;;;;;;15.81;41.93;97181.28;4215987;28;5672;-68
2023/10/15 18:45:10;;;;;;;;;;;;;;;15.81;42.02;97170.63;4212416;28;5786;-69
2023/10/15 18:47:14;;;;;;;;;;;;;;;15.82;42.29;97186.41;4213111;28;5675;-67
2023/10/15 18:49:17;;;;;;;;;;;;;;;15.73;42.12;97171.69;4212288;28;5741;-67
2023/10/15 18:51:20;;;;;;;;;;;;;;;15.71;42.20;97182.56;4213150;28;5838;-67
2023/10/15 18:53:41;;;;;;;;;;;;;;;15.64;42.12;97178.34;4208616;28;5668;-77
2023/10/15 18:55:45;;;;;;;;;;;;;;;15.62;41.79;97189.19;4215527;28;5659;-68
2023/10/15 18:57:47;;;;;;;;;;;;;;;15.61;41.81;97184.09;4214323;28;5611;-67
2023/10/15 18:59:50;;;;;;;;;;;;;;;15.59;41.64;97181.59;4214638;28;5668;-66
2023/10/15 19:01:53;;;;;;;;;;;;;;;15.51;41.75;97179.19;4208679;28;5685;-63
2023/10/15 19:03:56;;;;;;;;;;;;;;;15.57;41.78;97194.34;4214381;28;5879;-63
2023/10/15 19:06:01;;;;;;;;;;;;;;;15.61;41.08;97184.09;4208673;28;5754;-61
2023/10/15 19:08:05;;;;;;;;;;;;;;;15.63;41.17;97190.03;4212420;28;5641;-61
2023/10/15 19:10:10;;;;;;;;;;;;;;;15.57;40.81;97180.19;4209142;28;5803;-61
2023/10/15 19:12:13;;;;;;;;;;;;;;;15.48;40.81;97179.63;4214738;28;5820;-63
2023/10/15 19:14:16;;;;;;;;;;;;;;;15.46;40.82;97176.38;4208243;28;5659;-63
2023/10/15 19:16:19;;;;;;;;;;;;;;;15.40;41.04;97182.53;4211483;28;6485;-62
2023/10/15 19:18:23;;;;;;;;;;;;;;;15.42;41.16;97175.19;4214097;28;5802;-62
2023/10/15 19:20:27;;;;;;;;;;;;;;;15.44;41.17;97183.75;4204906;28;6382;-64
2023/10/15 19:22:30;;;;;;;;;;;;;;;15.41;41.32;97178.88;4210630;28;5861;-65
2023/10/15 19:24:33;;;;;;;;;;;;;;;15.31;41.38;97173.19;4213274;28;6461;-64
2023/10/15 19:26:37;;;;;;;;;;;;;;;15.33;41.21;97176.44;4208237;28;5651;-64
2023/10/15 19:28:39;;;;;;;;;;;;;;;15.34;41.30;97183.41;4217372;28;6504;-61
2023/10/15 19:30:43;;;;;;;;;;;;;;;15.35;41.39;97169.06;4212462;28;5659;-61
2023/10/15 19:32:45;;;;;;;;;;;;;;;15.38;41.50;97171.28;4216818;28;5658;-62
2023/10/15 19:34:51;;;;;;;;;;;;;;;15.34;41.32;97167.44;4215357;28;5816;-61
2023/10/15 19:36:53;;;;;;;;;;;;;;;15.29;41.33;97167.22;4213149;28;5901;-62
2023/10/15 19:38:57;;;;;;;;;;;;;;;15.30;41.47;97176.88;4212119;28;5672;-62
2023/10/15 19:40:59;;;;;;;;;;;;;;;15.30;41.65;97168.91;4215673;28;5638;-66
2023/10/15 19:43:04;;;;;;;;;;;;;;;15.31;41.48;97178.53;4205912;28;5708;-67
2023/10/15 19:45:08;;;;;;;;;;;;;;;15.32;41.46;97175.63;4214536;28;5797;-65
2023/10/15 19:47:11;;;;;;;;;;;;;;;15.32;41.79;97172.97;4212298;28;5778;-72
2023/10/15 19:49:15;;;;;;;;;;;;;;;15.30;41.95;97174.22;4210442;28;6465;-67
2023/10/15 19:51:18;;;;;;;;;;;;;;;15.31;41.93;97174.00;4208272;28;5762;-67
2023/10/15 19:53:26;;;;;;;;;;;;;;;15.32;41.71;97172.97;4208085;28;5697;-67
2023/10/15 19:55:30;;;;;;;;;;;;;;;15.30;41.82;97177.69;4212904;28;5675;-62
2023/10/15 19:57:33;;;;;;;;;;;;;;;15.30;42.15;97182.22;4214458;28;5706;-63
2023/10/15 19:59:38;;;;;;;;;;;;;;;15.33;42.05;97174.59;4212132;28;5958;-62
2023/10/15 20:01:41;;;;;;;;;;;;;;;15.27;42.19;97178.09;4212733;28;7691;-62
2023/10/15 20:03:44;;;;;;;;;;;;;;;15.26;42.19;97167.66;4213518;28;5726;-61
2023/10/15 20:06:07;;;;;;;;;;;;;;;15.29;42.42;97169.91;4216050;28;8053;-61
2023/10/15 20:08:10;;;;;;;;;;;;;;;15.21;42.63;97172.84;4215423;28;5771;-62
2023/10/15 20:10:14;;;;;;;;;;;;;;;15.20;42.59;97168.53;4215867;28;5645;-62
2023/10/15 20:12:18;;;;;;;;;;;;;;;15.11;43.10;97179.44;4215540;28;5671;-64
2023/10/15 20:14:20;;;;;;;;;;;;;;;15.06;43.30;97173.09;4208043;28;5851;-65
2023/10/15 20:16:25;;;;;;;;;;;;;;;15.00;43.44;97172.09;4214748;28;5683;-63
2023/10/15 20:18:29;;;;;;;;;;;;;;;15.01;43.23;97171.06;4218298;28;5778;-63
2023/10/15 20:20:32;;;;;;;;;;;;;;;14.98;43.23;97173.34;4216187;28;5675;-63
2023/10/15 20:22:35;;;;;;;;;;;;;;;14.94;43.09;97175.59;4214513;28;6390;-63
2023/10/15 20:24:38;;;;;;;;;;;;;;;14.91;43.21;97173.38;4216234;28;5746;-63
2023/10/15 20:26:40;;;;;;;;;;;;;;;14.85;43.48;97175.03;4218279;28;5469;-62
2023/10/15 20:28:44;;;;;;;;;;;;;;;14.78;43.16;97168.09;4216083;28;7710;-63
2023/10/15 20:30:47;;;;;;;;;;;;;;;14.72;43.42;97168.94;4215389;28;5811;-63
2023/10/15 20:32:51;;;;;;;;;;;;;;;14.73;43.33;97166.09;4214112;28;5779;-63
2023/10/15 20:34:58;;;;;;;;;;;;;;;14.75;43.48;97177.31;4216138;28;5819;-63
2023/10/15 20:37:01;;;;;;;;;;;;;;;14.74;43.62;97169.56;4216869;28;6508;-64
2023/10/15 20:39:08;;;;;;;;;;;;;;;14.79;43.39;97157.25;4217986;28;5720;-64
2023/10/15 20:41:13;;;;;;;;;;;;;;;14.82;43.05;97161.31;4218454;28;5691;-65
2023/10/15 20:43:17;;;;;;;;;;;;;;;14.81;43.24;97143.72;4215896;28;5674;-65
2023/10/15 20:45:20;;;;;;;;;;;;;;;14.80;43.38;97158.06;4215970;28;5660;-63
2023/10/15 20:47:26;;;;;;;;;;;;;;;14.79;43.61;97159.91;4213110;28;5732;-63
2023/10/15 20:49:31;;;;;;;;;;;;;;;14.74;43.42;97150.94;4212281;28;5672;-65
2023/10/15 20:51:34;;;;;;;;;;;;;;;14.68;43.87;97152.56;4215365;28;5671;-63
2023/10/15 20:53:37;;;;;;;;;;;;;;;14.72;43.64;97152.97;4215991;28;5671;-64
2023/10/15 20:55:40;;;;;;;;;;;;;;;14.69;43.88;97148.06;4216060;28;6496;-65
2023/10/15 20:57:43;;;;;;;;;;;;;;;14.68;43.87;97146.44;4215583;28;5688;-62
2023/10/15 20:59:47;;;;;;;;;;;;;;;14.69;43.90;97154.19;4218037;28;5747;-63
2023/10/15 21:01:50;;;;;;;;;;;;;;;14.73;44.22;97144.78;4218421;28;6368;-62
2023/10/15 21:03:53;;;;;;;;;;;;;;;14.73;43.89;97141.31;4216746;28;5877;-63
2023/10/15 21:05:57;;;;;;;;;;;;;;;14.74;43.89;97137.63;4209524;28;5687;-67
2023/10/15 21:08:02;;;;;;;;;;;;;;;14.72;44.21;97129.00;4214435;28;5679;-67
